createdAt,value
2023-02-13T00:07:22.521Z,-5.20
2023-02-13T00:17:27.426Z,-5.29
2023-02-13T00:27:30.349Z,-5.38
2023-02-13T00:37:35.223Z,-5.48
2023-02-13T00:47:38.147Z,-5.57
2023-02-13T00:57:42.591Z,-5.67
2023-02-13T01:07:45.446Z,-5.79
2023-02-13T01:17:50.286Z,-5.91
2023-02-13T01:27:53.153Z,-6.03
2023-02-13T01:37:57.445Z,-6.20
2023-02-13T01:48:05.928Z,-6.34
2023-02-13T01:58:15.349Z,-6.51
2023-02-13T02:08:19.881Z,-6.67
2023-02-13T02:18:24.973Z,-6.84
2023-02-13T02:28:45.573Z,-7.00
2023-02-13T02:39:03.449Z,-7.15
2023-02-13T02:49:29.667Z,-7.31
2023-02-13T02:59:55.567Z,-7.47
2023-02-13T03:10:21.404Z,-7.63
2023-02-13T03:20:55.476Z,-7.79
2023-02-13T03:31:06.827Z,-7.96
2023-02-13T03:41:18.614Z,-8.12
2023-02-13T03:51:27.646Z,-8.29
2023-02-13T04:01:36.977Z,-8.45
2023-02-13T04:11:46.438Z,-8.62
2023-02-13T04:22:02.925Z,-8.77
2023-02-13T04:32:05.889Z,-8.96
2023-02-13T04:42:10.901Z,-9.12
2023-02-13T04:52:15.791Z,-9.30
2023-02-13T05:02:20.152Z,-9.47
2023-02-13T05:12:23.148Z,-9.62
2023-02-13T05:22:46.069Z,-9.74
2023-02-13T05:32:51.055Z,-9.84
2023-02-13T05:42:56.189Z,-9.91
2023-02-13T05:52:58.990Z,-9.94
2023-02-13T06:03:03.512Z,-9.94
2023-02-13T06:13:06.516Z,-9.88
2023-02-13T06:23:10.826Z,-9.79
2023-02-13T06:33:13.941Z,-9.70
2023-02-13T06:43:18.299Z,-9.60
2023-02-13T06:53:25.132Z,-9.50
2023-02-13T07:03:29.524Z,-9.42
2023-02-13T07:13:32.320Z,-9.36
2023-02-13T07:23:37.875Z,-9.24
2023-02-13T07:33:40.639Z,-9.12
2023-02-13T07:43:45.108Z,-9.00
2023-02-13T07:53:49.922Z,-8.88
2023-02-13T08:03:54.477Z,-8.76
2023-02-13T08:13:57.271Z,-8.62
2023-02-13T08:24:02.825Z,-8.47
2023-02-13T08:34:06.023Z,-8.28
2023-02-13T08:44:10.561Z,-8.10
2023-02-13T08:54:13.657Z,-7.97
2023-02-13T09:04:21.201Z,-7.86
2023-02-13T09:14:25.101Z,-7.72
2023-02-13T09:24:29.679Z,-7.57
2023-02-13T09:34:32.976Z,-7.39
2023-02-13T09:44:43.566Z,-7.22
2023-02-13T09:54:48.045Z,-7.10
2023-02-13T10:05:04.405Z,-6.98
2023-02-13T10:15:21.755Z,-6.84
2023-02-13T10:25:30.228Z,-6.72
2023-02-13T10:35:34.271Z,-6.63
2023-02-13T10:45:51.874Z,-6.54
2023-02-13T10:56:25.954Z,-6.43
2023-02-13T11:06:30.921Z,-6.31
2023-02-13T11:16:41.448Z,-6.20
2023-02-13T11:26:55.236Z,-6.13
2023-02-13T11:37:22.196Z,-6.03
2023-02-13T11:47:45.469Z,-6.02
2023-02-13T11:57:57.600Z,-5.98
2023-02-13T12:08:14.648Z,-5.93
2023-02-13T12:18:23.887Z,-5.88
2023-02-13T12:28:43.530Z,-5.80
2023-02-13T12:39:05.778Z,-5.73
2023-02-13T12:49:22.216Z,-5.69
2023-02-13T12:59:38.416Z,-5.65
2023-02-13T13:10:16.208Z,-5.62
2023-02-13T13:20:54.855Z,-5.59
2023-02-13T13:31:00.332Z,-5.54
2023-02-13T13:41:23.201Z,-5.54
2023-02-13T13:51:27.759Z,-5.52
2023-02-13T14:01:31.464Z,-5.49
2023-02-13T14:11:38.998Z,-5.46
2023-02-13T14:21:44.227Z,-5.44
2023-02-13T14:32:12.774Z,-5.41
2023-02-13T14:42:28.341Z,-5.41
2023-02-13T14:53:07.606Z,-5.40
2023-02-13T15:03:29.784Z,-5.41
2023-02-13T15:13:49.046Z,-5.39
2023-02-13T15:24:27.174Z,-5.39
2023-02-13T15:34:43.404Z,-5.39
2023-02-13T15:44:59.755Z,-5.38
2023-02-13T15:55:08.106Z,-5.38
2023-02-13T16:05:38.534Z,-5.45
2023-02-13T16:26:15.455Z,-5.52
2023-02-13T16:36:29.565Z,-5.57
2023-02-13T16:47:01.926Z,-5.55
2023-02-13T16:57:24.387Z,-5.53
2023-02-13T17:07:31.141Z,-5.52
2023-02-13T17:17:36.874Z,-5.52
2023-02-13T17:27:43.494Z,-5.53
2023-02-13T17:37:46.868Z,-5.53
2023-02-13T17:47:53.067Z,-5.52
2023-02-13T17:57:57.676Z,-5.54
2023-02-13T18:08:05.589Z,-5.55
2023-02-13T18:18:17.342Z,-5.61
2023-02-13T18:28:33.358Z,-5.60
2023-02-13T18:38:37.914Z,-5.60
2023-02-13T18:48:45.822Z,-5.64
2023-02-13T18:58:49.910Z,-5.64
2023-02-13T19:08:56.028Z,-5.68
2023-02-13T19:19:06.885Z,-5.71
2023-02-13T19:29:11.492Z,-5.73
2023-02-13T19:39:14.865Z,-5.76
2023-02-13T19:49:24.121Z,-5.84
2023-02-13T19:59:32.295Z,-5.86
2023-02-13T20:09:38.227Z,-5.90
2023-02-13T20:19:41.314Z,-5.94
2023-02-13T20:29:46.216Z,-5.97
2023-02-13T20:40:01.227Z,-5.99
2023-02-13T20:50:06.965Z,-6.04
2023-02-13T21:00:13.429Z,-6.11
2023-02-13T21:10:18.318Z,-6.13
2023-02-13T21:20:21.361Z,-6.17
2023-02-13T21:30:25.837Z,-6.21
2023-02-13T21:40:28.921Z,-6.22
2023-02-13T21:50:33.245Z,-6.24
2023-02-13T22:00:36.017Z,-6.26
2023-02-13T22:10:40.547Z,-6.25
2023-02-13T22:20:43.410Z,-6.24
2023-02-13T22:30:47.892Z,-6.23
2023-02-13T22:40:53.744Z,-6.21
2023-02-13T22:51:01.576Z,-6.19
2023-02-13T23:01:10.859Z,-6.17
2023-02-13T23:11:36.673Z,-6.17
2023-02-13T23:21:39.611Z,-6.16
2023-02-13T23:42:28.186Z,-6.14
2023-02-13T23:52:32.663Z,-6.15
